EUS17EF EIDW-EGPH
Flight info
| Callsign | EUS17EF |
|---|---|
| Flight time | 0h 39m |
| Altitude | 25000 |
| Route | ROTEV3J ROTEV P600 TUNSO |
| Aircraft | A20N/M-SDE2E3FGHIRWXY/LB1 |
Departure
| Time | 2026-05-08 00:02 |
|---|---|
| Airport | Dublin Airport (EIDW) |
Arrival
| Time | 2026-05-08 00:41 |
|---|---|
| Airport | Edinburgh Airport (EGPH) |
| Time | Latitude | Longitude | Altitude | Speed | Heading |
|---|---|---|---|---|---|
| 2026-05-07 23:38 | 53.42672 | -6.24637 | 250 ft | 0 kts | 156° |
| 2026-05-07 23:48 | 53.42684 | -6.24645 | 251 ft | 2 kts | 158° |
| 2026-05-07 23:49 | 53.42697 | -6.24655 | 251 ft | 2 kts | 156° |
| 2026-05-07 23:49 | 53.42711 | -6.24667 | 251 ft | 2 kts | 134° |
| 2026-05-07 23:49 | 53.42720 | -6.24688 | 251 ft | 2 kts | 109° |
| 2026-05-07 23:49 | 53.42722 | -6.24714 | 251 ft | 2 kts | 83° |
| 2026-05-07 23:50 | 53.42717 | -6.24738 | 251 ft | 2 kts | 62° |
| 2026-05-07 23:50 | 53.42710 | -6.24761 | 251 ft | 2 kts | 63° |
| 2026-05-07 23:50 | 53.42703 | -6.24783 | 251 ft | 2 kts | 59° |
| 2026-05-07 23:50 | 53.42695 | -6.24804 | 251 ft | 2 kts | 55° |
| 2026-05-07 23:51 | 53.42686 | -6.24824 | 251 ft | 2 kts | 51° |
| 2026-05-07 23:51 | 53.42677 | -6.24843 | 251 ft | 2 kts | 48° |
| 2026-05-07 23:51 | 53.42666 | -6.24861 | 251 ft | 2 kts | 47° |
| 2026-05-07 23:51 | 53.42656 | -6.24880 | 251 ft | 2 kts | 37° |
| 2026-05-07 23:52 | 53.42642 | -6.24889 | 251 ft | 2 kts | 4° |
| 2026-05-07 23:52 | 53.42627 | -6.24885 | 251 ft | 2 kts | 335° |
| 2026-05-07 23:52 | 53.42613 | -6.24876 | 251 ft | 1 kts | 342° |
| 2026-05-07 23:52 | 53.42612 | -6.24875 | 251 ft | 0 kts | 342° |
| 2026-05-07 23:56 | 53.42635 | -6.24887 | 251 ft | 8 kts | 342° |
| 2026-05-07 23:56 | 53.42680 | -6.24934 | 251 ft | 9 kts | 325° |
| 2026-05-07 23:57 | 53.42738 | -6.25005 | 251 ft | 10 kts | 326° |
| 2026-05-07 23:57 | 53.42794 | -6.25094 | 251 ft | 11 kts | 292° |
| 2026-05-07 23:57 | 53.42804 | -6.25226 | 251 ft | 11 kts | 303° |
| 2026-05-07 23:57 | 53.42876 | -6.25300 | 251 ft | 12 kts | 334° |
| 2026-05-07 23:58 | 53.42959 | -6.25364 | 251 ft | 13 kts | 336° |
| 2026-05-07 23:58 | 53.43048 | -6.25429 | 251 ft | 14 kts | 337° |
| 2026-05-07 23:58 | 53.43142 | -6.25498 | 251 ft | 14 kts | 336° |
| 2026-05-07 23:58 | 53.43235 | -6.25566 | 251 ft | 15 kts | 338° |
| 2026-05-07 23:59 | 53.43335 | -6.25635 | 251 ft | 15 kts | 338° |
| 2026-05-07 23:59 | 53.43406 | -6.25552 | 251 ft | 15 kts | 89° |
| 2026-05-07 23:59 | 53.43396 | -6.25371 | 251 ft | 15 kts | 95° |
| 2026-05-07 23:59 | 53.43387 | -6.25184 | 251 ft | 16 kts | 95° |
| 2026-05-08 00:00 | 53.43377 | -6.25002 | 251 ft | 16 kts | 95° |
| 2026-05-08 00:00 | 53.43368 | -6.24806 | 251 ft | 16 kts | 95° |
| 2026-05-08 00:00 | 53.43361 | -6.24610 | 251 ft | 16 kts | 68° |
| 2026-05-08 00:00 | 53.43456 | -6.24554 | 251 ft | 15 kts | 4° |
| 2026-05-08 00:01 | 53.43533 | -6.24632 | 251 ft | 15 kts | 271° |
| 2026-05-08 00:01 | 53.43546 | -6.24968 | 251 ft | 63 kts | 275° |
| 2026-05-08 00:01 | 53.43611 | -6.26154 | 253 ft | 137 kts | 275° |
| 2026-05-08 00:01 | 53.43709 | -6.27898 | 745 ft | 153 kts | 274° |
| 2026-05-08 00:02 | 53.43892 | -6.29690 | 1422 ft | 162 kts | 291° |
| 2026-05-08 00:02 | 53.44608 | -6.31200 | 2198 ft | 169 kts | 317° |
| 2026-05-08 00:02 | 53.45502 | -6.32467 | 2950 ft | 172 kts | 310° |
| 2026-05-08 00:02 | 53.46299 | -6.34071 | 3522 ft | 186 kts | 310° |
| 2026-05-08 00:03 | 53.47524 | -6.35173 | 3941 ft | 218 kts | 352° |
| 2026-05-08 00:03 | 53.49039 | -6.35165 | 4609 ft | 232 kts | 1° |
| 2026-05-08 00:03 | 53.50632 | -6.34988 | 5514 ft | 236 kts | 1° |
| 2026-05-08 00:03 | 53.52295 | -6.34807 | 6482 ft | 238 kts | 2° |
| 2026-05-08 00:04 | 53.53973 | -6.34462 | 7310 ft | 247 kts | 6° |
| 2026-05-08 00:04 | 53.55749 | -6.34012 | 7922 ft | 266 kts | 7° |
| 2026-05-08 00:04 | 53.57661 | -6.33511 | 8524 ft | 285 kts | 7° |
| 2026-05-08 00:04 | 53.59671 | -6.32979 | 8898 ft | 294 kts | 6° |
| 2026-05-08 00:05 | 53.61665 | -6.32461 | 8991 ft | 293 kts | 6° |
| 2026-05-08 00:05 | 53.63701 | -6.31943 | 9207 ft | 303 kts | 6° |
| 2026-05-08 00:05 | 53.65826 | -6.31375 | 10087 ft | 309 kts | 8° |
| 2026-05-08 00:05 | 53.67933 | -6.30594 | 11133 ft | 311 kts | 12° |
| 2026-05-08 00:06 | 53.70015 | -6.29676 | 11678 ft | 329 kts | 13° |
| 2026-05-08 00:06 | 53.72322 | -6.28621 | 12217 ft | 346 kts | 13° |
| 2026-05-08 00:06 | 53.74719 | -6.27450 | 13006 ft | 355 kts | 15° |
| 2026-05-08 00:06 | 53.77085 | -6.25983 | 13840 ft | 363 kts | 20° |
| 2026-05-08 00:07 | 53.79404 | -6.24289 | 14595 ft | 371 kts | 21° |
| 2026-05-08 00:07 | 53.81792 | -6.22477 | 15357 ft | 377 kts | 21° |
| 2026-05-08 00:07 | 53.84265 | -6.20592 | 16121 ft | 384 kts | 21° |
| 2026-05-08 00:07 | 53.86623 | -6.18799 | 16912 ft | 387 kts | 20° |
| 2026-05-08 00:08 | 53.88997 | -6.16996 | 17807 ft | 387 kts | 20° |
| 2026-05-08 00:08 | 53.91465 | -6.15125 | 18683 ft | 387 kts | 19° |
| 2026-05-08 00:08 | 53.93965 | -6.13236 | 19541 ft | 388 kts | 19° |
| 2026-05-08 00:08 | 53.96373 | -6.11416 | 20381 ft | 388 kts | 19° |
| 2026-05-08 00:09 | 53.98911 | -6.09492 | 21263 ft | 387 kts | 18° |
| 2026-05-08 00:09 | 54.01426 | -6.07581 | 22106 ft | 386 kts | 18° |
| 2026-05-08 00:09 | 54.03909 | -6.05670 | 22928 ft | 386 kts | 18° |
| 2026-05-08 00:09 | 54.06384 | -6.03669 | 23655 ft | 389 kts | 19° |
| 2026-05-08 00:10 | 54.08864 | -6.01624 | 24339 ft | 390 kts | 19° |
| 2026-05-08 00:10 | 54.11187 | -5.99708 | 24765 ft | 392 kts | 18° |
| 2026-05-08 00:10 | 54.13701 | -5.97650 | 24966 ft | 400 kts | 18° |
| 2026-05-08 00:10 | 54.16229 | -5.95598 | 24972 ft | 421 kts | 18° |
| 2026-05-08 00:11 | 54.18947 | -5.93390 | 24976 ft | 441 kts | 19° |
| 2026-05-08 00:11 | 54.21879 | -5.90990 | 24979 ft | 461 kts | 19° |
| 2026-05-08 00:11 | 54.24865 | -5.88533 | 24979 ft | 479 kts | 20° |
| 2026-05-08 00:11 | 54.27942 | -5.85988 | 24976 ft | 488 kts | 20° |
| 2026-05-08 00:12 | 54.31078 | -5.83381 | 24974 ft | 489 kts | 20° |
| 2026-05-08 00:12 | 54.34190 | -5.80792 | 24974 ft | 490 kts | 20° |
| 2026-05-08 00:12 | 54.37310 | -5.78197 | 24974 ft | 491 kts | 20° |
| 2026-05-08 00:12 | 54.40460 | -5.75586 | 24978 ft | 506 kts | 20° |
| 2026-05-08 00:13 | 54.43670 | -5.72928 | 24978 ft | 520 kts | 20° |
| 2026-05-08 00:13 | 54.47022 | -5.70140 | 24977 ft | 533 kts | 20° |
| 2026-05-08 00:13 | 54.50444 | -5.67284 | 24976 ft | 543 kts | 20° |
| 2026-05-08 00:13 | 54.53859 | -5.64423 | 24976 ft | 551 kts | 20° |
| 2026-05-08 00:14 | 54.57358 | -5.61242 | 24974 ft | 557 kts | 25° |
| 2026-05-08 00:14 | 54.60556 | -5.57709 | 24974 ft | 561 kts | 31° |
| 2026-05-08 00:14 | 54.63710 | -5.53494 | 24976 ft | 564 kts | 36° |
| 2026-05-08 00:14 | 54.66704 | -5.49024 | 24975 ft | 565 kts | 38° |
| 2026-05-08 00:15 | 54.69581 | -5.44571 | 24974 ft | 565 kts | 39° |
| 2026-05-08 00:15 | 54.72534 | -5.39976 | 24974 ft | 565 kts | 38° |
| 2026-05-08 00:15 | 54.75390 | -5.35562 | 24974 ft | 565 kts | 38° |
| 2026-05-08 00:15 | 54.78214 | -5.31227 | 24972 ft | 565 kts | 39° |
| 2026-05-08 00:16 | 54.81182 | -5.26682 | 24973 ft | 565 kts | 39° |
| 2026-05-08 00:16 | 54.84075 | -5.22255 | 24973 ft | 565 kts | 38° |
| 2026-05-08 00:16 | 54.87145 | -5.17914 | 24973 ft | 562 kts | 33° |
| 2026-05-08 00:16 | 54.90200 | -5.14264 | 24976 ft | 559 kts | 28° |
| 2026-05-08 00:17 | 54.93619 | -5.10904 | 24979 ft | 553 kts | 23° |
| 2026-05-08 00:17 | 54.96920 | -5.08049 | 24979 ft | 549 kts | 22° |
| 2026-05-08 00:17 | 55.00126 | -5.05395 | 24978 ft | 545 kts | 22° |
| 2026-05-08 00:17 | 55.03596 | -5.02505 | 24977 ft | 542 kts | 22° |
| 2026-05-08 00:18 | 55.06755 | -4.99805 | 24975 ft | 540 kts | 23° |
| 2026-05-08 00:18 | 55.09708 | -4.96604 | 24953 ft | 546 kts | 37° |
| 2026-05-08 00:18 | 55.12089 | -4.92135 | 24966 ft | 550 kts | 54° |
| 2026-05-08 00:18 | 55.13897 | -4.86383 | 24948 ft | 552 kts | 65° |
| 2026-05-08 00:19 | 55.15320 | -4.80594 | 24791 ft | 549 kts | 68° |
| 2026-05-08 00:19 | 55.16681 | -4.74620 | 24321 ft | 537 kts | 68° |
| 2026-05-08 00:19 | 55.17919 | -4.69173 | 23682 ft | 529 kts | 68° |
| 2026-05-08 00:19 | 55.19261 | -4.63400 | 23082 ft | 519 kts | 67° |
| 2026-05-08 00:20 | 55.20650 | -4.57560 | 22509 ft | 508 kts | 66° |
| 2026-05-08 00:20 | 55.22013 | -4.51915 | 21964 ft | 499 kts | 66° |
| 2026-05-08 00:20 | 55.23375 | -4.46316 | 21424 ft | 489 kts | 66° |
| 2026-05-08 00:20 | 55.24708 | -4.40857 | 20892 ft | 480 kts | 66° |
| 2026-05-08 00:21 | 55.25971 | -4.35679 | 20383 ft | 472 kts | 66° |
| 2026-05-08 00:21 | 55.27224 | -4.30534 | 19867 ft | 464 kts | 66° |
| 2026-05-08 00:21 | 55.28499 | -4.25284 | 19333 ft | 456 kts | 67° |
| 2026-05-08 00:21 | 55.29741 | -4.20151 | 18803 ft | 449 kts | 66° |
| 2026-05-08 00:22 | 55.30651 | -4.16386 | 18410 ft | 443 kts | 66° |
| 2026-05-08 00:22 | 55.31620 | -4.12369 | 17987 ft | 438 kts | 66° |
| 2026-05-08 00:22 | 55.32588 | -4.08347 | 17559 ft | 432 kts | 66° |
| 2026-05-08 00:22 | 55.33691 | -4.03759 | 17064 ft | 426 kts | 66° |
| 2026-05-08 00:23 | 55.34807 | -3.99105 | 16553 ft | 420 kts | 66° |
| 2026-05-08 00:23 | 55.35899 | -3.94542 | 16041 ft | 413 kts | 67° |
| 2026-05-08 00:23 | 55.36941 | -3.90178 | 15570 ft | 391 kts | 66° |
| 2026-05-08 00:23 | 55.37983 | -3.85811 | 15128 ft | 374 kts | 66° |
| 2026-05-08 00:24 | 55.38979 | -3.81625 | 14650 ft | 366 kts | 66° |
| 2026-05-08 00:24 | 55.39887 | -3.77806 | 14197 ft | 361 kts | 66° |
| 2026-05-08 00:24 | 55.40791 | -3.73995 | 13726 ft | 356 kts | 66° |
| 2026-05-08 00:24 | 55.41727 | -3.70040 | 13237 ft | 353 kts | 66° |
| 2026-05-08 00:25 | 55.42621 | -3.66258 | 12752 ft | 353 kts | 66° |
| 2026-05-08 00:25 | 55.43573 | -3.62227 | 12229 ft | 354 kts | 67° |
| 2026-05-08 00:25 | 55.44500 | -3.58290 | 11815 ft | 352 kts | 67° |
| 2026-05-08 00:25 | 55.45444 | -3.54276 | 11383 ft | 350 kts | 67° |
| 2026-05-08 00:26 | 55.46386 | -3.50269 | 10973 ft | 346 kts | 67° |
| 2026-05-08 00:26 | 55.47302 | -3.46353 | 10752 ft | 335 kts | 67° |
| 2026-05-08 00:26 | 55.48181 | -3.42580 | 10666 ft | 320 kts | 67° |
| 2026-05-08 00:26 | 55.48999 | -3.39066 | 10588 ft | 307 kts | 67° |
| 2026-05-08 00:27 | 55.50027 | -3.35714 | 10288 ft | 302 kts | 49° |
| 2026-05-08 00:27 | 55.51601 | -3.33316 | 9969 ft | 296 kts | 30° |
| 2026-05-08 00:27 | 55.53425 | -3.31486 | 9642 ft | 293 kts | 26° |
| 2026-05-08 00:27 | 55.55230 | -3.29804 | 9322 ft | 290 kts | 25° |
| 2026-05-08 00:28 | 55.56968 | -3.28177 | 9016 ft | 288 kts | 26° |
| 2026-05-08 00:28 | 55.58769 | -3.26467 | 8690 ft | 286 kts | 27° |
| 2026-05-08 00:28 | 55.60505 | -3.24780 | 8379 ft | 284 kts | 27° |
| 2026-05-08 00:28 | 55.62262 | -3.23066 | 8062 ft | 283 kts | 27° |
| 2026-05-08 00:29 | 55.63999 | -3.21357 | 7751 ft | 281 kts | 27° |
| 2026-05-08 00:29 | 55.65660 | -3.19720 | 7452 ft | 279 kts | 27° |
| 2026-05-08 00:29 | 55.67371 | -3.18032 | 7145 ft | 276 kts | 28° |
| 2026-05-08 00:29 | 55.69061 | -3.16357 | 6988 ft | 266 kts | 28° |
| 2026-05-08 00:30 | 55.70578 | -3.14816 | 6995 ft | 267 kts | 30° |
| 2026-05-08 00:30 | 55.72137 | -3.13127 | 6996 ft | 268 kts | 31° |
| 2026-05-08 00:30 | 55.73780 | -3.11351 | 6997 ft | 269 kts | 31° |
| 2026-05-08 00:30 | 55.75337 | -3.09664 | 6997 ft | 269 kts | 31° |
| 2026-05-08 00:31 | 55.76968 | -3.07897 | 6846 ft | 271 kts | 31° |
| 2026-05-08 00:31 | 55.78634 | -3.06188 | 6481 ft | 269 kts | 29° |
| 2026-05-08 00:31 | 55.80332 | -3.04629 | 6112 ft | 267 kts | 27° |
| 2026-05-08 00:31 | 55.82002 | -3.03126 | 5733 ft | 265 kts | 26° |
| 2026-05-08 00:32 | 55.83630 | -3.01670 | 5361 ft | 264 kts | 26° |
| 2026-05-08 00:32 | 55.85191 | -3.00275 | 5003 ft | 263 kts | 26° |
| 2026-05-08 00:32 | 55.86933 | -2.99042 | 4598 ft | 262 kts | 7° |
| 2026-05-08 00:32 | 55.88757 | -2.99227 | 4222 ft | 257 kts | 349° |
| 2026-05-08 00:33 | 55.90492 | -2.99935 | 3836 ft | 243 kts | 346° |
| 2026-05-08 00:33 | 55.92136 | -3.00632 | 3446 ft | 232 kts | 347° |
| 2026-05-08 00:33 | 55.93735 | -3.01243 | 3051 ft | 222 kts | 348° |
| 2026-05-08 00:33 | 55.95213 | -3.01754 | 2673 ft | 215 kts | 349° |
| 2026-05-08 00:34 | 55.96635 | -3.02215 | 2299 ft | 208 kts | 350° |
| 2026-05-08 00:34 | 55.97369 | -3.02447 | 2103 ft | 206 kts | 350° |
| 2026-05-08 00:34 | 55.97509 | -3.02491 | 2065 ft | 205 kts | 350° |
| 2026-05-08 00:34 | 55.98903 | -3.02923 | 1791 ft | 192 kts | 350° |
| 2026-05-08 00:35 | 56.00183 | -3.03318 | 1414 ft | 186 kts | 350° |
| 2026-05-08 00:35 | 56.01457 | -3.03709 | 1027 ft | 181 kts | 350° |
| 2026-05-08 00:35 | 56.02669 | -3.04067 | 1033 ft | 173 kts | 349° |
| 2026-05-08 00:35 | 56.03812 | -3.04833 | 1244 ft | 175 kts | 326° |
| 2026-05-08 00:36 | 56.04493 | -3.06637 | 1543 ft | 170 kts | 287° |
| 2026-05-08 00:36 | 56.04558 | -3.08557 | 1852 ft | 145 kts | 260° |
| 2026-05-08 00:36 | 56.04221 | -3.10195 | 2190 ft | 134 kts | 240° |
| 2026-05-08 00:36 | 56.03731 | -3.11587 | 2325 ft | 134 kts | 236° |
| 2026-05-08 00:37 | 56.03210 | -3.13007 | 2322 ft | 133 kts | 237° |
| 2026-05-08 00:37 | 56.02697 | -3.14449 | 2327 ft | 133 kts | 238° |
| 2026-05-08 00:37 | 56.02219 | -3.15842 | 2305 ft | 134 kts | 239° |
| 2026-05-08 00:38 | 56.01271 | -3.18768 | 2136 ft | 133 kts | 239° |
| 2026-05-08 00:38 | 56.00783 | -3.20232 | 2076 ft | 133 kts | 239° |
| 2026-05-08 00:38 | 56.00285 | -3.21701 | 1900 ft | 133 kts | 239° |
| 2026-05-08 00:38 | 55.99808 | -3.23104 | 1724 ft | 132 kts | 238° |
| 2026-05-08 00:39 | 55.99337 | -3.24485 | 1551 ft | 132 kts | 238° |
| 2026-05-08 00:39 | 55.98872 | -3.25849 | 1381 ft | 132 kts | 239° |
| 2026-05-08 00:39 | 55.98389 | -3.27265 | 1204 ft | 131 kts | 238° |
| 2026-05-08 00:39 | 55.97905 | -3.28688 | 1029 ft | 131 kts | 239° |
| 2026-05-08 00:40 | 55.97432 | -3.30081 | 852 ft | 130 kts | 239° |
| 2026-05-08 00:40 | 55.96952 | -3.31493 | 675 ft | 130 kts | 239° |
| 2026-05-08 00:40 | 55.96474 | -3.32900 | 498 ft | 130 kts | 239° |
| 2026-05-08 00:40 | 55.95998 | -3.34302 | 323 ft | 129 kts | 239° |
| 2026-05-08 00:41 | 55.95524 | -3.35703 | 148 ft | 128 kts | 239° |
| 2026-05-08 00:41 | 55.95076 | -3.37007 | 101 ft | 103 kts | 240° |
| 2026-05-08 00:41 | 55.94799 | -3.37833 | 104 ft | 41 kts | 238° |
| 2026-05-08 00:41 | 55.94698 | -3.38039 | 104 ft | 15 kts | 185° |
| 2026-05-08 00:42 | 55.94603 | -3.37957 | 106 ft | 13 kts | 139° |
| 2026-05-08 00:42 | 55.94612 | -3.37810 | 106 ft | 14 kts | 54° |
| 2026-05-08 00:42 | 55.94670 | -3.37646 | 104 ft | 16 kts | 59° |
| 2026-05-08 00:42 | 55.94731 | -3.37467 | 103 ft | 17 kts | 59° |
| 2026-05-08 00:43 | 55.94794 | -3.37282 | 102 ft | 17 kts | 59° |
| 2026-05-08 00:43 | 55.94855 | -3.37105 | 103 ft | 16 kts | 58° |
| 2026-05-08 00:43 | 55.94920 | -3.36914 | 102 ft | 17 kts | 66° |
| 2026-05-08 00:43 | 55.94899 | -3.36732 | 103 ft | 14 kts | 73° |
| 2026-05-08 00:44 | 55.94934 | -3.36621 | 104 ft | 9 kts | 58° |
| 2026-05-08 00:44 | 55.94971 | -3.36513 | 104 ft | 6 kts | 59° |
| 2026-05-08 00:44 | 55.94961 | -3.36483 | 104 ft | 3 kts | 159° |
| 2026-05-08 00:44 | 55.94937 | -3.36463 | 105 ft | 3 kts | 150° |
| 2026-05-08 00:45 | 55.94924 | -3.36449 | 105 ft | 0 kts | 148° |